Terminal Aerodrome Forecast
Issued by NWS

Home | Current Version | Previous Version | Text Only | Print | Product List | Glossary On
Versions: 1 2 3 4 5 6 7 8 9 10 11 12 13 14 15 16 17 18 19
000
FTUS43 KDTX 262325
TAFMBS
TAF
KMBS 262325Z 2700/2724 24004KT P6SM BKN250
     FM270900 25006KT P6SM BKN100
     FM271200 31008KT P6SM BKN050 PROB30 2712/2715 6SM -RA BKN035=

USA.gov is the U.S. government's official web portal to all federal, state and local government web resources and services.